sensor_id;sensor_type;location;lat;lon;timestamp;temperature;humidity
14378;DHT22;7272;53.668;9.578;2023-02-28T00:01:02;5.30;99.90
14378;DHT22;7272;53.668;9.578;2023-02-28T00:04:05;5.40;99.90
14378;DHT22;7272;53.668;9.578;2023-02-28T00:07:10;5.40;99.90
14378;DHT22;7272;53.668;9.578;2023-02-28T00:10:14;5.40;99.90
14378;DHT22;7272;53.668;9.578;2023-02-28T00:13:19;5.50;99.90
14378;DHT22;7272;53.668;9.578;2023-02-28T00:16:22;5.50;99.90
14378;DHT22;7272;53.668;9.578;2023-02-28T00:19:25;5.50;99.90
14378;DHT22;7272;53.668;9.578;2023-02-28T00:22:27;5.50;99.90
14378;DHT22;7272;53.668;9.578;2023-02-28T00:25:29;5.50;99.90
14378;DHT22;7272;53.668;9.578;2023-02-28T00:28:31;5.50;99.90
14378;DHT22;7272;53.668;9.578;2023-02-28T00:31:33;5.40;99.90
14378;DHT22;7272;53.668;9.578;2023-02-28T00:34:37;5.40;99.90
14378;DHT22;7272;53.668;9.578;2023-02-28T00:37:39;5.40;99.90
14378;DHT22;7272;53.668;9.578;2023-02-28T00:40:41;5.30;99.90
14378;DHT22;7272;53.668;9.578;2023-02-28T00:43:52;5.30;99.90
14378;DHT22;7272;53.668;9.578;2023-02-28T00:46:54;5.20;99.90
14378;DHT22;7272;53.668;9.578;2023-02-28T00:50:00;5.10;99.90
14378;DHT22;7272;53.668;9.578;2023-02-28T00:53:02;5.20;99.90
14378;DHT22;7272;53.668;9.578;2023-02-28T00:56:05;5.20;99.90
14378;DHT22;7272;53.668;9.578;2023-02-28T00:59:07;5.20;99.90
14378;DHT22;7272;53.668;9.578;2023-02-28T01:02:09;5.20;99.90
14378;DHT22;7272;53.668;9.578;2023-02-28T01:05:12;5.10;99.90
14378;DHT22;7272;53.668;9.578;2023-02-28T01:08:15;5.10;99.90
14378;DHT22;7272;53.668;9.578;2023-02-28T01:11:17;5.10;99.90
14378;DHT22;7272;53.668;9.578;2023-02-28T01:14:19;5.10;99.90
14378;DHT22;7272;53.668;9.578;2023-02-28T01:17:21;5.00;99.90
14378;DHT22;7272;53.668;9.578;2023-02-28T01:20:25;5.00;99.90
14378;DHT22;7272;53.668;9.578;2023-02-28T01:23:27;5.00;99.90
14378;DHT22;7272;53.668;9.578;2023-02-28T01:26:29;5.00;99.90
14378;DHT22;7272;53.668;9.578;2023-02-28T01:29:31;5.00;99.90
14378;DHT22;7272;53.668;9.578;2023-02-28T01:32:33;4.90;99.90
14378;DHT22;7272;53.668;9.578;2023-02-28T01:35:36;4.90;99.90
14378;DHT22;7272;53.668;9.578;2023-02-28T01:38:38;4.90;99.90
14378;DHT22;7272;53.668;9.578;2023-02-28T01:41:40;4.90;99.90
14378;DHT22;7272;53.668;9.578;2023-02-28T01:45:01;4.80;99.90
14378;DHT22;7272;53.668;9.578;2023-02-28T01:48:07;4.80;99.90
14378;DHT22;7272;53.668;9.578;2023-02-28T01:51:15;4.70;99.90
14378;DHT22;7272;53.668;9.578;2023-02-28T01:54:22;4.70;99.90
14378;DHT22;7272;53.668;9.578;2023-02-28T01:57:29;4.60;99.90
14378;DHT22;7272;53.668;9.578;2023-02-28T02:00:38;4.50;99.90
14378;DHT22;7272;53.668;9.578;2023-02-28T02:03:41;4.40;99.90
14378;DHT22;7272;53.668;9.578;2023-02-28T02:06:47;4.40;99.90
14378;DHT22;7272;53.668;9.578;2023-02-28T02:10:01;4.40;99.90
14378;DHT22;7272;53.668;9.578;2023-02-28T02:13:18;4.40;99.90
14378;DHT22;7272;53.668;9.578;2023-02-28T02:16:32;4.50;99.90
14378;DHT22;7272;53.668;9.578;2023-02-28T02:20:09;4.50;99.90
14378;DHT22;7272;53.668;9.578;2023-02-28T02:23:40;4.50;99.90
14378;DHT22;7272;53.668;9.578;2023-02-28T02:27:03;4.50;99.90
14378;DHT22;7272;53.668;9.578;2023-02-28T02:34:03;4.50;99.90
14378;DHT22;7272;53.668;9.578;2023-02-28T02:37:13;4.40;99.90
14378;DHT22;7272;53.668;9.578;2023-02-28T02:40:19;4.50;99.90
14378;DHT22;7272;53.668;9.578;2023-02-28T02:43:26;4.50;99.90
14378;DHT22;7272;53.668;9.578;2023-02-28T02:46:32;4.40;99.90
14378;DHT22;7272;53.668;9.578;2023-02-28T02:49:38;4.40;99.90
14378;DHT22;7272;53.668;9.578;2023-02-28T02:52:45;4.30;99.90
14378;DHT22;7272;53.668;9.578;2023-02-28T02:55:52;4.30;99.90
14378;DHT22;7272;53.668;9.578;2023-02-28T02:58:59;4.30;99.90
14378;DHT22;7272;53.668;9.578;2023-02-28T03:02:05;4.30;99.90
14378;DHT22;7272;53.668;9.578;2023-02-28T03:05:17;4.30;99.90
14378;DHT22;7272;53.668;9.578;2023-02-28T03:08:20;4.30;99.90
14378;DHT22;7272;53.668;9.578;2023-02-28T03:11:23;4.20;99.90
14378;DHT22;7272;53.668;9.578;2023-02-28T03:14:40;4.30;99.90
14378;DHT22;7272;53.668;9.578;2023-02-28T03:18:00;4.30;99.90
14378;DHT22;7272;53.668;9.578;2023-02-28T03:21:11;4.30;99.90
14378;DHT22;7272;53.668;9.578;2023-02-28T03:24:21;4.30;99.90
14378;DHT22;7272;53.668;9.578;2023-02-28T03:27:29;4.30;99.90
14378;DHT22;7272;53.668;9.578;2023-02-28T03:30:36;4.30;99.90
14378;DHT22;7272;53.668;9.578;2023-02-28T03:33:43;4.20;99.90
14378;DHT22;7272;53.668;9.578;2023-02-28T03:36:51;4.20;99.90
14378;DHT22;7272;53.668;9.578;2023-02-28T03:39:57;4.20;99.90
14378;DHT22;7272;53.668;9.578;2023-02-28T03:43:04;4.10;99.90
14378;DHT22;7272;53.668;9.578;2023-02-28T03:46:12;4.20;99.90
14378;DHT22;7272;53.668;9.578;2023-02-28T03:49:18;4.20;99.90
14378;DHT22;7272;53.668;9.578;2023-02-28T03:52:28;4.20;99.90
14378;DHT22;7272;53.668;9.578;2023-02-28T03:55:36;4.10;99.90
14378;DHT22;7272;53.668;9.578;2023-02-28T03:58:43;4.20;99.90
14378;DHT22;7272;53.668;9.578;2023-02-28T04:01:47;4.20;99.90
14378;DHT22;7272;53.668;9.578;2023-02-28T04:04:50;4.20;99.90
14378;DHT22;7272;53.668;9.578;2023-02-28T04:07:53;4.20;99.90
14378;DHT22;7272;53.668;9.578;2023-02-28T04:10:58;4.20;99.90
14378;DHT22;7272;53.668;9.578;2023-02-28T04:14:02;4.30;99.90
14378;DHT22;7272;53.668;9.578;2023-02-28T04:17:04;4.30;99.90
14378;DHT22;7272;53.668;9.578;2023-02-28T04:20:07;4.30;99.90
14378;DHT22;7272;53.668;9.578;2023-02-28T04:23:12;4.20;99.90
14378;DHT22;7272;53.668;9.578;2023-02-28T04:26:14;4.30;99.90
14378;DHT22;7272;53.668;9.578;2023-02-28T04:29:21;4.20;99.90
14378;DHT22;7272;53.668;9.578;2023-02-28T04:32:23;4.30;99.90
14378;DHT22;7272;53.668;9.578;2023-02-28T04:35:25;4.30;99.90
14378;DHT22;7272;53.668;9.578;2023-02-28T04:38:29;4.30;99.90
14378;DHT22;7272;53.668;9.578;2023-02-28T04:41:31;4.30;99.90
14378;DHT22;7272;53.668;9.578;2023-02-28T04:44:33;4.30;99.90
14378;DHT22;7272;53.668;9.578;2023-02-28T04:47:35;4.30;99.90
14378;DHT22;7272;53.668;9.578;2023-02-28T04:50:36;4.20;99.90
14378;DHT22;7272;53.668;9.578;2023-02-28T04:53:41;4.20;99.90
14378;DHT22;7272;53.668;9.578;2023-02-28T04:56:43;4.20;99.90
14378;DHT22;7272;53.668;9.578;2023-02-28T04:59:45;4.20;99.90
14378;DHT22;7272;53.668;9.578;2023-02-28T05:02:47;4.20;99.90
14378;DHT22;7272;53.668;9.578;2023-02-28T05:05:49;4.10;99.90
14378;DHT22;7272;53.668;9.578;2023-02-28T05:08:53;3.90;99.90
14378;DHT22;7272;53.668;9.578;2023-02-28T05:11:55;3.90;99.90
14378;DHT22;7272;53.668;9.578;2023-02-28T05:14:57;3.80;99.90
14378;DHT22;7272;53.668;9.578;2023-02-28T05:17:59;3.80;99.90
14378;DHT22;7272;53.668;9.578;2023-02-28T05:21:01;3.70;99.90
14378;DHT22;7272;53.668;9.578;2023-02-28T05:24:10;3.60;99.90
14378;DHT22;7272;53.668;9.578;2023-02-28T05:27:12;3.50;99.90
14378;DHT22;7272;53.668;9.578;2023-02-28T05:30:17;3.40;99.90
14378;DHT22;7272;53.668;9.578;2023-02-28T05:33:19;3.30;99.90
14378;DHT22;7272;53.668;9.578;2023-02-28T05:36:21;3.30;99.90
14378;DHT22;7272;53.668;9.578;2023-02-28T05:39:25;3.20;99.90
14378;DHT22;7272;53.668;9.578;2023-02-28T05:42:27;3.10;99.90
14378;DHT22;7272;53.668;9.578;2023-02-28T05:45:29;2.90;99.90
14378;DHT22;7272;53.668;9.578;2023-02-28T05:48:35;2.80;99.90
14378;DHT22;7272;53.668;9.578;2023-02-28T05:51:37;2.80;99.90
14378;DHT22;7272;53.668;9.578;2023-02-28T05:54:41;2.70;99.90
14378;DHT22;7272;53.668;9.578;2023-02-28T05:57:43;2.70;99.90
14378;DHT22;7272;53.668;9.578;2023-02-28T06:00:45;2.70;99.90
14378;DHT22;7272;53.668;9.578;2023-02-28T06:03:47;2.60;99.90
14378;DHT22;7272;53.668;9.578;2023-02-28T06:06:50;2.60;99.90
14378;DHT22;7272;53.668;9.578;2023-02-28T06:09:53;2.50;99.90
14378;DHT22;7272;53.668;9.578;2023-02-28T06:12:55;2.40;99.90
14378;DHT22;7272;53.668;9.578;2023-02-28T06:16:00;2.40;99.90
14378;DHT22;7272;53.668;9.578;2023-02-28T06:19:03;2.30;99.90
14378;DHT22;7272;53.668;9.578;2023-02-28T06:22:05;2.30;99.90
14378;DHT22;7272;53.668;9.578;2023-02-28T06:25:09;2.30;99.90
14378;DHT22;7272;53.668;9.578;2023-02-28T06:28:12;2.20;99.90
14378;DHT22;7272;53.668;9.578;2023-02-28T06:31:16;2.20;99.90
14378;DHT22;7272;53.668;9.578;2023-02-28T06:34:18;2.20;99.90
14378;DHT22;7272;53.668;9.578;2023-02-28T06:37:20;2.20;99.90
14378;DHT22;7272;53.668;9.578;2023-02-28T06:40:24;2.10;99.90
14378;DHT22;7272;53.668;9.578;2023-02-28T06:43:28;2.10;99.90
14378;DHT22;7272;53.668;9.578;2023-02-28T06:46:31;2.10;99.90
14378;DHT22;7272;53.668;9.578;2023-02-28T06:49:35;2.10;99.90
14378;DHT22;7272;53.668;9.578;2023-02-28T06:52:37;2.10;99.90
14378;DHT22;7272;53.668;9.578;2023-02-28T06:55:41;2.20;99.90
14378;DHT22;7272;53.668;9.578;2023-02-28T06:58:46;2.30;99.90
14378;DHT22;7272;53.668;9.578;2023-02-28T07:01:48;2.30;99.90
14378;DHT22;7272;53.668;9.578;2023-02-28T07:04:50;2.30;99.90
14378;DHT22;7272;53.668;9.578;2023-02-28T07:07:52;2.30;99.90
14378;DHT22;7272;53.668;9.578;2023-02-28T07:10:55;2.30;99.90
14378;DHT22;7272;53.668;9.578;2023-02-28T07:13:58;2.40;99.90
14378;DHT22;7272;53.668;9.578;2023-02-28T07:17:00;2.40;99.90
14378;DHT22;7272;53.668;9.578;2023-02-28T07:20:02;2.50;99.90
14378;DHT22;7272;53.668;9.578;2023-02-28T07:23:05;2.60;99.90
14378;DHT22;7272;53.668;9.578;2023-02-28T07:26:12;2.70;99.90
14378;DHT22;7272;53.668;9.578;2023-02-28T07:29:21;2.70;99.90
14378;DHT22;7272;53.668;9.578;2023-02-28T07:32:23;2.80;99.90
14378;DHT22;7272;53.668;9.578;2023-02-28T07:35:25;2.90;99.90
14378;DHT22;7272;53.668;9.578;2023-02-28T07:38:27;3.00;99.90
14378;DHT22;7272;53.668;9.578;2023-02-28T07:41:30;3.20;99.90
14378;DHT22;7272;53.668;9.578;2023-02-28T07:44:34;3.30;99.90
14378;DHT22;7272;53.668;9.578;2023-02-28T07:47:42;3.50;99.90
14378;DHT22;7272;53.668;9.578;2023-02-28T07:50:44;3.60;99.90
14378;DHT22;7272;53.668;9.578;2023-02-28T07:53:49;3.80;99.90
14378;DHT22;7272;53.668;9.578;2023-02-28T07:56:54;3.90;99.90
14378;DHT22;7272;53.668;9.578;2023-02-28T07:59:56;4.00;99.90
14378;DHT22;7272;53.668;9.578;2023-02-28T08:02:58;4.10;99.90
14378;DHT22;7272;53.668;9.578;2023-02-28T08:06:00;4.20;99.90
14378;DHT22;7272;53.668;9.578;2023-02-28T08:09:03;4.30;99.90
14378;DHT22;7272;53.668;9.578;2023-02-28T08:12:06;4.40;99.90
14378;DHT22;7272;53.668;9.578;2023-02-28T08:15:09;4.60;99.90
14378;DHT22;7272;53.668;9.578;2023-02-28T08:18:11;5.00;99.90
14378;DHT22;7272;53.668;9.578;2023-02-28T08:21:13;5.60;99.90
14378;DHT22;7272;53.668;9.578;2023-02-28T08:24:15;6.10;99.90
14378;DHT22;7272;53.668;9.578;2023-02-28T08:27:18;6.40;99.90
14378;DHT22;7272;53.668;9.578;2023-02-28T08:30:20;6.50;99.90
14378;DHT22;7272;53.668;9.578;2023-02-28T08:33:23;6.60;99.90
14378;DHT22;7272;53.668;9.578;2023-02-28T08:36:25;6.40;99.90
14378;DHT22;7272;53.668;9.578;2023-02-28T08:39:29;6.10;99.90
14378;DHT22;7272;53.668;9.578;2023-02-28T08:42:33;6.10;99.90
14378;DHT22;7272;53.668;9.578;2023-02-28T08:45:35;6.10;99.90
14378;DHT22;7272;53.668;9.578;2023-02-28T08:48:37;6.20;99.90
14378;DHT22;7272;53.668;9.578;2023-02-28T08:51:39;6.30;99.90
14378;DHT22;7272;53.668;9.578;2023-02-28T08:54:41;6.40;99.90
14378;DHT22;7272;53.668;9.578;2023-02-28T08:57:44;6.50;99.90
14378;DHT22;7272;53.668;9.578;2023-02-28T09:00:46;6.60;99.90
14378;DHT22;7272;53.668;9.578;2023-02-28T09:03:50;6.70;99.90
14378;DHT22;7272;53.668;9.578;2023-02-28T09:06:52;6.80;99.90
14378;DHT22;7272;53.668;9.578;2023-02-28T09:09:54;6.90;99.90
14378;DHT22;7272;53.668;9.578;2023-02-28T09:12:58;7.00;99.90
14378;DHT22;7272;53.668;9.578;2023-02-28T09:16:02;7.10;99.90
14378;DHT22;7272;53.668;9.578;2023-02-28T09:19:04;7.20;99.90
14378;DHT22;7272;53.668;9.578;2023-02-28T09:22:06;7.30;99.90
14378;DHT22;7272;53.668;9.578;2023-02-28T09:25:08;7.30;99.90
14378;DHT22;7272;53.668;9.578;2023-02-28T09:28:12;7.50;99.90
14378;DHT22;7272;53.668;9.578;2023-02-28T09:31:16;7.60;99.90
14378;DHT22;7272;53.668;9.578;2023-02-28T09:34:21;7.60;99.90
14378;DHT22;7272;53.668;9.578;2023-02-28T09:37:23;7.80;99.90
14378;DHT22;7272;53.668;9.578;2023-02-28T09:40:27;7.80;99.90
14378;DHT22;7272;53.668;9.578;2023-02-28T09:43:34;7.70;99.90
14378;DHT22;7272;53.668;9.578;2023-02-28T09:46:39;7.80;99.90
14378;DHT22;7272;53.668;9.578;2023-02-28T09:49:45;7.90;99.90
14378;DHT22;7272;53.668;9.578;2023-02-28T09:52:49;8.00;99.90
14378;DHT22;7272;53.668;9.578;2023-02-28T09:55:55;8.10;99.90
14378;DHT22;7272;53.668;9.578;2023-02-28T09:59:04;8.10;99.90
14378;DHT22;7272;53.668;9.578;2023-02-28T10:02:21;8.20;99.90
14378;DHT22;7272;53.668;9.578;2023-02-28T10:05:29;8.30;99.90
14378;DHT22;7272;53.668;9.578;2023-02-28T10:08:36;8.30;99.90
14378;DHT22;7272;53.668;9.578;2023-02-28T10:11:42;8.40;99.90
14378;DHT22;7272;53.668;9.578;2023-02-28T10:14:49;8.60;99.90
14378;DHT22;7272;53.668;9.578;2023-02-28T10:17:55;8.70;99.90
14378;DHT22;7272;53.668;9.578;2023-02-28T10:20:59;8.90;99.90
14378;DHT22;7272;53.668;9.578;2023-02-28T10:24:05;8.90;99.90
14378;DHT22;7272;53.668;9.578;2023-02-28T10:27:15;9.00;99.90
14378;DHT22;7272;53.668;9.578;2023-02-28T10:30:19;9.00;99.90
14378;DHT22;7272;53.668;9.578;2023-02-28T10:33:24;9.10;99.90
14378;DHT22;7272;53.668;9.578;2023-02-28T10:36:26;9.30;99.90
14378;DHT22;7272;53.668;9.578;2023-02-28T10:39:37;9.50;99.90
14378;DHT22;7272;53.668;9.578;2023-02-28T10:42:39;9.60;99.90
14378;DHT22;7272;53.668;9.578;2023-02-28T10:45:55;9.60;99.90
14378;DHT22;7272;53.668;9.578;2023-02-28T10:49:02;9.70;99.90
14378;DHT22;7272;53.668;9.578;2023-02-28T10:52:08;9.70;99.90
14378;DHT22;7272;53.668;9.578;2023-02-28T10:55:19;9.80;99.90
14378;DHT22;7272;53.668;9.578;2023-02-28T10:58:24;9.80;99.90
14378;DHT22;7272;53.668;9.578;2023-02-28T11:01:37;10.00;99.90
14378;DHT22;7272;53.668;9.578;2023-02-28T11:04:40;10.00;99.90
14378;DHT22;7272;53.668;9.578;2023-02-28T11:07:51;9.90;99.90
14378;DHT22;7272;53.668;9.578;2023-02-28T11:10:58;9.90;99.90
14378;DHT22;7272;53.668;9.578;2023-02-28T11:14:04;9.90;99.90
14378;DHT22;7272;53.668;9.578;2023-02-28T11:17:15;9.80;99.90
14378;DHT22;7272;53.668;9.578;2023-02-28T11:20:22;9.70;99.90
14378;DHT22;7272;53.668;9.578;2023-02-28T11:23:27;9.80;99.90
14378;DHT22;7272;53.668;9.578;2023-02-28T11:26:39;9.90;99.90
14378;DHT22;7272;53.668;9.578;2023-02-28T11:29:47;9.90;99.90
14378;DHT22;7272;53.668;9.578;2023-02-28T11:32:51;10.00;99.90
14378;DHT22;7272;53.668;9.578;2023-02-28T11:35:57;10.10;99.90
14378;DHT22;7272;53.668;9.578;2023-02-28T11:39:10;10.20;99.90
14378;DHT22;7272;53.668;9.578;2023-02-28T11:42:40;10.40;99.90
14378;DHT22;7272;53.668;9.578;2023-02-28T11:45:58;10.50;99.90
14378;DHT22;7272;53.668;9.578;2023-02-28T11:49:16;10.60;99.90
14378;DHT22;7272;53.668;9.578;2023-02-28T11:52:33;10.70;99.90
14378;DHT22;7272;53.668;9.578;2023-02-28T11:55:39;10.70;99.90
14378;DHT22;7272;53.668;9.578;2023-02-28T11:58:49;10.80;99.90
14378;DHT22;7272;53.668;9.578;2023-02-28T12:02:15;10.90;99.90
14378;DHT22;7272;53.668;9.578;2023-02-28T12:05:28;11.00;99.90
14378;DHT22;7272;53.668;9.578;2023-02-28T12:08:43;11.20;99.90
14378;DHT22;7272;53.668;9.578;2023-02-28T12:11:51;11.10;99.90
14378;DHT22;7272;53.668;9.578;2023-02-28T12:15:13;11.20;99.90
14378;DHT22;7272;53.668;9.578;2023-02-28T12:18:30;11.20;99.90
14378;DHT22;7272;53.668;9.578;2023-02-28T12:21:55;11.20;99.90
14378;DHT22;7272;53.668;9.578;2023-02-28T12:25:40;11.20;99.90
14378;DHT22;7272;53.668;9.578;2023-02-28T12:28:48;11.30;99.90
14378;DHT22;7272;53.668;9.578;2023-02-28T12:31:55;11.10;99.90
14378;DHT22;7272;53.668;9.578;2023-02-28T12:35:01;11.10;99.90
14378;DHT22;7272;53.668;9.578;2023-02-28T12:38:09;11.10;99.90
14378;DHT22;7272;53.668;9.578;2023-02-28T12:41:17;11.10;99.90
14378;DHT22;7272;53.668;9.578;2023-02-28T12:44:25;11.00;99.90
14378;DHT22;7272;53.668;9.578;2023-02-28T12:47:29;11.00;99.90
14378;DHT22;7272;53.668;9.578;2023-02-28T12:50:32;11.00;99.90
14378;DHT22;7272;53.668;9.578;2023-02-28T12:53:47;11.00;99.90
14378;DHT22;7272;53.668;9.578;2023-02-28T12:56:56;11.10;99.90
14378;DHT22;7272;53.668;9.578;2023-02-28T13:00:03;11.10;99.90
14378;DHT22;7272;53.668;9.578;2023-02-28T13:03:22;11.10;99.90
14378;DHT22;7272;53.668;9.578;2023-02-28T13:06:43;10.90;99.90
14378;DHT22;7272;53.668;9.578;2023-02-28T13:09:54;10.60;99.90
14378;DHT22;7272;53.668;9.578;2023-02-28T13:12:56;10.60;99.90
14378;DHT22;7272;53.668;9.578;2023-02-28T13:16:04;10.80;99.90
14378;DHT22;7272;53.668;9.578;2023-02-28T13:19:11;10.90;99.90
14378;DHT22;7272;53.668;9.578;2023-02-28T13:22:19;10.90;99.90
14378;DHT22;7272;53.668;9.578;2023-02-28T13:25:53;10.90;99.90
14378;DHT22;7272;53.668;9.578;2023-02-28T13:28:59;11.00;99.90
14378;DHT22;7272;53.668;9.578;2023-02-28T13:35:44;11.20;99.90
14378;DHT22;7272;53.668;9.578;2023-02-28T13:38:47;11.40;99.90
14378;DHT22;7272;53.668;9.578;2023-02-28T13:41:53;11.40;99.90
14378;DHT22;7272;53.668;9.578;2023-02-28T13:45:21;11.50;99.90
14378;DHT22;7272;53.668;9.578;2023-02-28T13:48:25;11.50;99.90
14378;DHT22;7272;53.668;9.578;2023-02-28T13:51:39;11.60;99.90
14378;DHT22;7272;53.668;9.578;2023-02-28T13:55:06;11.70;99.90
14378;DHT22;7272;53.668;9.578;2023-02-28T13:58:39;11.70;99.90
14378;DHT22;7272;53.668;9.578;2023-02-28T14:05:15;11.60;99.90
14378;DHT22;7272;53.668;9.578;2023-02-28T14:08:20;11.50;99.90
14378;DHT22;7272;53.668;9.578;2023-02-28T14:11:27;11.40;99.90
14378;DHT22;7272;53.668;9.578;2023-02-28T14:14:55;11.00;99.90
14378;DHT22;7272;53.668;9.578;2023-02-28T14:18:01;10.70;99.90
14378;DHT22;7272;53.668;9.578;2023-02-28T14:21:12;10.60;99.90
14378;DHT22;7272;53.668;9.578;2023-02-28T14:24:32;10.60;99.90
14378;DHT22;7272;53.668;9.578;2023-02-28T14:27:45;10.80;99.90
14378;DHT22;7272;53.668;9.578;2023-02-28T14:31:05;10.80;99.90
14378;DHT22;7272;53.668;9.578;2023-02-28T14:34:30;10.50;99.90
14378;DHT22;7272;53.668;9.578;2023-02-28T14:37:36;10.20;99.90
14378;DHT22;7272;53.668;9.578;2023-02-28T14:40:40;10.50;99.90
14378;DHT22;7272;53.668;9.578;2023-02-28T14:43:49;10.80;99.90
14378;DHT22;7272;53.668;9.578;2023-02-28T14:46:55;11.00;99.90
14378;DHT22;7272;53.668;9.578;2023-02-28T14:49:58;11.00;99.90
14378;DHT22;7272;53.668;9.578;2023-02-28T14:53:01;11.10;99.90
14378;DHT22;7272;53.668;9.578;2023-02-28T14:56:05;10.90;99.90
14378;DHT22;7272;53.668;9.578;2023-02-28T14:59:24;10.70;99.90
14378;DHT22;7272;53.668;9.578;2023-02-28T15:02:33;10.50;99.90
14378;DHT22;7272;53.668;9.578;2023-02-28T15:05:36;10.30;99.90
14378;DHT22;7272;53.668;9.578;2023-02-28T15:08:38;10.30;99.90
14378;DHT22;7272;53.668;9.578;2023-02-28T15:11:41;10.20;99.90
14378;DHT22;7272;53.668;9.578;2023-02-28T15:14:47;10.30;99.90
14378;DHT22;7272;53.668;9.578;2023-02-28T15:17:54;10.20;99.90
14378;DHT22;7272;53.668;9.578;2023-02-28T15:21:02;10.20;99.90
14378;DHT22;7272;53.668;9.578;2023-02-28T15:24:08;10.20;99.90
14378;DHT22;7272;53.668;9.578;2023-02-28T15:27:14;10.20;99.90
14378;DHT22;7272;53.668;9.578;2023-02-28T15:30:19;10.20;99.90
14378;DHT22;7272;53.668;9.578;2023-02-28T15:33:24;10.10;99.90
14378;DHT22;7272;53.668;9.578;2023-02-28T15:36:29;10.00;99.90
14378;DHT22;7272;53.668;9.578;2023-02-28T15:39:42;9.70;99.90
14378;DHT22;7272;53.668;9.578;2023-02-28T15:42:58;9.60;99.90
14378;DHT22;7272;53.668;9.578;2023-02-28T15:46:02;9.50;99.90
14378;DHT22;7272;53.668;9.578;2023-02-28T15:49:17;9.50;99.90
14378;DHT22;7272;53.668;9.578;2023-02-28T15:52:24;9.40;99.90
14378;DHT22;7272;53.668;9.578;2023-02-28T15:55:28;9.30;99.90
14378;DHT22;7272;53.668;9.578;2023-02-28T15:58:33;9.10;99.90
14378;DHT22;7272;53.668;9.578;2023-02-28T16:01:37;9.00;99.90
14378;DHT22;7272;53.668;9.578;2023-02-28T16:04:58;8.90;99.90
14378;DHT22;7272;53.668;9.578;2023-02-28T16:08:10;8.60;99.90
14378;DHT22;7272;53.668;9.578;2023-02-28T16:11:14;8.40;99.90
14378;DHT22;7272;53.668;9.578;2023-02-28T16:14:19;8.20;99.90
14378;DHT22;7272;53.668;9.578;2023-02-28T16:17:26;8.10;99.90
14378;DHT22;7272;53.668;9.578;2023-02-28T16:20:30;8.00;99.90
14378;DHT22;7272;53.668;9.578;2023-02-28T16:23:32;7.90;99.90
14378;DHT22;7272;53.668;9.578;2023-02-28T16:26:34;7.70;99.90
14378;DHT22;7272;53.668;9.578;2023-02-28T16:29:37;7.60;99.90
14378;DHT22;7272;53.668;9.578;2023-02-28T16:32:39;7.50;99.90
14378;DHT22;7272;53.668;9.578;2023-02-28T16:35:43;7.40;99.90
14378;DHT22;7272;53.668;9.578;2023-02-28T16:38:45;7.30;99.90
14378;DHT22;7272;53.668;9.578;2023-02-28T16:41:48;7.20;99.90
14378;DHT22;7272;53.668;9.578;2023-02-28T16:44:51;7.00;99.90
14378;DHT22;7272;53.668;9.578;2023-02-28T16:47:53;6.80;99.90
14378;DHT22;7272;53.668;9.578;2023-02-28T16:50:57;6.70;99.90
14378;DHT22;7272;53.668;9.578;2023-02-28T16:53:59;6.60;99.90
14378;DHT22;7272;53.668;9.578;2023-02-28T16:57:01;6.50;99.90
14378;DHT22;7272;53.668;9.578;2023-02-28T17:00:04;6.50;99.90
14378;DHT22;7272;53.668;9.578;2023-02-28T17:03:15;6.40;99.90
14378;DHT22;7272;53.668;9.578;2023-02-28T17:06:24;6.30;99.90
14378;DHT22;7272;53.668;9.578;2023-02-28T17:09:28;6.20;99.90
14378;DHT22;7272;53.668;9.578;2023-02-28T17:12:30;6.10;99.90
14378;DHT22;7272;53.668;9.578;2023-02-28T17:15:31;6.10;99.90
14378;DHT22;7272;53.668;9.578;2023-02-28T17:18:33;6.00;99.90
14378;DHT22;7272;53.668;9.578;2023-02-28T17:21:37;5.80;99.90
14378;DHT22;7272;53.668;9.578;2023-02-28T17:24:39;5.60;99.90
14378;DHT22;7272;53.668;9.578;2023-02-28T17:27:41;5.50;99.90
14378;DHT22;7272;53.668;9.578;2023-02-28T17:30:43;5.30;99.90
14378;DHT22;7272;53.668;9.578;2023-02-28T17:33:48;5.20;99.90
14378;DHT22;7272;53.668;9.578;2023-02-28T17:36:51;5.10;99.90
14378;DHT22;7272;53.668;9.578;2023-02-28T17:39:53;5.10;99.90
14378;DHT22;7272;53.668;9.578;2023-02-28T17:42:55;5.10;99.90
14378;DHT22;7272;53.668;9.578;2023-02-28T17:45:58;5.10;99.90
14378;DHT22;7272;53.668;9.578;2023-02-28T17:49:00;5.00;99.90
14378;DHT22;7272;53.668;9.578;2023-02-28T17:52:04;4.90;99.90
14378;DHT22;7272;53.668;9.578;2023-02-28T17:55:06;4.80;99.90
14378;DHT22;7272;53.668;9.578;2023-02-28T17:58:10;4.70;99.90
14378;DHT22;7272;53.668;9.578;2023-02-28T18:01:13;4.60;99.90
14378;DHT22;7272;53.668;9.578;2023-02-28T18:04:15;4.50;99.90
14378;DHT22;7272;53.668;9.578;2023-02-28T18:07:19;4.50;99.90
14378;DHT22;7272;53.668;9.578;2023-02-28T18:10:22;4.40;99.90
14378;DHT22;7272;53.668;9.578;2023-02-28T18:13:24;4.40;99.90
14378;DHT22;7272;53.668;9.578;2023-02-28T18:16:28;4.40;99.90
14378;DHT22;7272;53.668;9.578;2023-02-28T18:19:30;4.40;99.90
14378;DHT22;7272;53.668;9.578;2023-02-28T18:22:33;4.40;99.90
14378;DHT22;7272;53.668;9.578;2023-02-28T18:25:36;4.30;99.90
14378;DHT22;7272;53.668;9.578;2023-02-28T18:28:41;4.30;99.90
14378;DHT22;7272;53.668;9.578;2023-02-28T18:31:44;4.30;99.90
14378;DHT22;7272;53.668;9.578;2023-02-28T18:34:46;4.30;99.90
14378;DHT22;7272;53.668;9.578;2023-02-28T18:37:49;4.30;99.90
14378;DHT22;7272;53.668;9.578;2023-02-28T18:40:52;4.40;99.90
14378;DHT22;7272;53.668;9.578;2023-02-28T18:43:54;4.30;99.90
14378;DHT22;7272;53.668;9.578;2023-02-28T18:46:56;4.30;99.90
14378;DHT22;7272;53.668;9.578;2023-02-28T18:49:58;4.20;99.90
14378;DHT22;7272;53.668;9.578;2023-02-28T18:53:01;4.00;99.90
14378;DHT22;7272;53.668;9.578;2023-02-28T18:56:05;3.80;99.90
14378;DHT22;7272;53.668;9.578;2023-02-28T18:59:07;3.80;99.90
14378;DHT22;7272;53.668;9.578;2023-02-28T19:02:10;3.80;99.90
14378;DHT22;7272;53.668;9.578;2023-02-28T19:05:12;3.70;99.90
14378;DHT22;7272;53.668;9.578;2023-02-28T19:08:15;3.70;99.90
14378;DHT22;7272;53.668;9.578;2023-02-28T19:11:18;3.60;99.90
14378;DHT22;7272;53.668;9.578;2023-02-28T19:14:20;3.50;99.90
14378;DHT22;7272;53.668;9.578;2023-02-28T19:17:21;3.50;99.90
14378;DHT22;7272;53.668;9.578;2023-02-28T19:20:23;3.50;99.90
14378;DHT22;7272;53.668;9.578;2023-02-28T19:23:27;3.50;99.90
14378;DHT22;7272;53.668;9.578;2023-02-28T19:26:32;3.30;99.90
14378;DHT22;7272;53.668;9.578;2023-02-28T19:29:34;3.10;99.90
14378;DHT22;7272;53.668;9.578;2023-02-28T19:32:36;3.10;99.90
14378;DHT22;7272;53.668;9.578;2023-02-28T19:35:39;3.10;99.90
14378;DHT22;7272;53.668;9.578;2023-02-28T19:38:42;3.10;99.90
14378;DHT22;7272;53.668;9.578;2023-02-28T19:41:45;3.00;99.90
14378;DHT22;7272;53.668;9.578;2023-02-28T19:44:46;3.00;99.90
14378;DHT22;7272;53.668;9.578;2023-02-28T19:47:48;3.00;99.90
14378;DHT22;7272;53.668;9.578;2023-02-28T19:50:54;2.90;99.90
14378;DHT22;7272;53.668;9.578;2023-02-28T19:53:58;2.90;99.90
14378;DHT22;7272;53.668;9.578;2023-02-28T19:57:00;2.80;99.90
14378;DHT22;7272;53.668;9.578;2023-02-28T20:00:02;2.80;99.90
14378;DHT22;7272;53.668;9.578;2023-02-28T20:03:13;2.80;99.90
14378;DHT22;7272;53.668;9.578;2023-02-28T20:06:15;2.70;99.90
14378;DHT22;7272;53.668;9.578;2023-02-28T20:09:18;2.70;99.90
14378;DHT22;7272;53.668;9.578;2023-02-28T20:12:20;2.70;99.90
14378;DHT22;7272;53.668;9.578;2023-02-28T20:15:22;2.80;99.90
14378;DHT22;7272;53.668;9.578;2023-02-28T20:18:24;2.80;99.90
14378;DHT22;7272;53.668;9.578;2023-02-28T20:21:26;2.80;99.90